Time;durP1;ratioP1;P1;durP2;ratioP2;P2;SDS_P1;SDS_P2;PMS_P1;PMS_P2;Temp;Humidity;BMP_temperature;BMP_pressure;BME280_temperature;BME280_humidity;BME280_pressure;Samples;Min_cycle;Max_cycle;Signal;HPM_P1;HPM_P2
2022/01/14 00:02:27;;;;;;;14.70;5.90;;;6.50;99.90;;;;;;5010499;28;20199;-77
2022/01/14 00:04:52;;;;;;;14.27;5.70;;;6.50;99.90;;;;;;4981308;28;20172;-76
2022/01/14 00:07:18;;;;;;;19.83;6.63;;;6.50;99.90;;;;;;5004520;28;20171;-76
2022/01/14 00:09:44;;;;;;;18.47;6.57;;;6.50;99.90;;;;;;5003366;28;20184;-76
2022/01/14 00:12:15;;;;;;;17.87;6.27;;;6.50;99.90;;;;;;4997436;28;20225;-76
2022/01/14 00:14:44;;;;;;;16.87;5.83;;;6.50;99.90;;;;;;5009655;28;20183;-77
2022/01/14 00:17:13;;;;;;;15.77;5.93;;;6.40;99.90;;;;;;5011344;28;20176;-78
2022/01/14 00:19:40;;;;;;;16.17;5.80;;;6.40;99.90;;;;;;4987497;28;20239;-76
2022/01/14 00:22:11;;;;;;;17.30;5.47;;;6.40;99.90;;;;;;5006985;28;20285;-76
2022/01/14 00:35:23;;;;;;;17.53;6.53;;;6.50;99.90;;;;;;5017472;28;20187;-76
2022/01/14 00:37:48;;;;;;;16.47;6.23;;;6.40;99.90;;;;;;4985467;28;20204;-76
2022/01/14 00:40:14;;;;;;;19.83;6.43;;;6.40;99.90;;;;;;4984836;28;20694;-75
2022/01/14 00:42:40;;;;;;;17.93;5.83;;;6.40;99.90;;;;;;5004705;28;20205;-75
2022/01/14 00:45:07;;;;;;;13.57;5.87;;;6.50;99.90;;;;;;5000281;28;20264;-76
2022/01/14 00:47:37;;;;;;;19.07;6.00;;;6.50;99.90;;;;;;5009239;28;20177;-76
2022/01/14 00:50:05;;;;;;;15.97;5.83;;;6.50;99.90;;;;;;4986871;28;20198;-75
2022/01/14 00:52:32;;;;;;;16.73;5.77;;;6.40;99.90;;;;;;5015691;28;20232;-76
2022/01/14 00:54:57;;;;;;;19.73;6.17;;;6.40;99.90;;;;;;5010604;28;20182;-76
2022/01/14 00:59:14;;;;;;;17.03;6.73;;;6.40;99.90;;;;;;5005108;28;20180;-76
2022/01/14 01:00:11;;;;;;;16.27;6.17;;;6.40;99.90;;;;;;5013521;28;20216;-76
2022/01/14 01:02:37;;;;;;;13.67;6.17;;;6.30;99.90;;;;;;4988775;28;20246;-75
2022/01/14 01:05:03;;;;;;;26.37;6.83;;;6.40;99.90;;;;;;4993072;28;20276;-76
2022/01/14 01:07:29;;;;;;;19.13;6.43;;;6.30;99.90;;;;;;4979409;28;20190;-75
2022/01/14 01:09:55;;;;;;;16.40;5.60;;;6.30;99.90;;;;;;4980514;28;20230;-75
2022/01/14 01:12:34;;;;;;;17.73;6.13;;;6.30;99.90;;;;;;5005502;28;20211;-76
2022/01/14 01:15:09;;;;;;;14.23;5.47;;;6.40;99.90;;;;;;4986189;28;20181;-75
2022/01/14 01:17:58;;;;;;;16.40;5.97;;;6.30;99.90;;;;;;4992469;28;20179;-75
2022/01/14 01:20:27;;;;;;;17.60;6.40;;;6.30;99.90;;;;;;4978732;28;20453;-75
2022/01/14 01:22:54;;;;;;;10.80;5.50;;;6.20;99.90;;;;;;5006856;28;20280;-76
2022/01/14 01:25:45;;;;;;;16.17;6.17;;;6.30;99.90;;;;;;5008437;28;20159;-76
2022/01/14 01:28:11;;;;;;;17.37;6.23;;;6.30;99.90;;;;;;5007562;28;20183;-76
2022/01/14 01:33:06;;;;;;;15.27;6.30;;;6.30;99.90;;;;;;5021205;28;20199;-76
2022/01/14 01:35:33;;;;;;;13.13;5.63;;;6.20;99.90;;;;;;4993038;28;20216;-76
2022/01/14 01:38:05;;;;;;;15.47;5.57;;;6.30;99.90;;;;;;4993891;28;20176;-76
2022/01/14 01:40:31;;;;;;;16.30;5.17;;;6.30;99.90;;;;;;5008021;28;20166;-77
2022/01/14 01:43:00;;;;;;;13.07;4.50;;;6.30;99.90;;;;;;4978981;28;20691;-76
2022/01/14 01:45:26;;;;;;;14.37;5.30;;;6.30;99.90;;;;;;4999453;28;20176;-76
2022/01/14 01:47:59;;;;;;;14.07;5.10;;;6.30;99.90;;;;;;4989676;28;20172;-77
2022/01/14 01:50:27;;;;;;;15.67;5.10;;;6.20;99.90;;;;;;4977359;28;20205;-77
2022/01/14 01:52:53;;;;;;;14.20;5.00;;;6.20;99.90;;;;;;4986503;28;20186;-76
2022/01/14 01:55:22;;;;;;;13.87;5.40;;;6.20;99.90;;;;;;5003199;28;20193;-77
2022/01/14 01:57:52;;;;;;;14.27;5.17;;;6.30;99.90;;;;;;5006007;28;20168;-76
2022/01/14 02:00:21;;;;;;;14.23;5.87;;;6.30;99.90;;;;;;4981784;28;20204;-77
2022/01/14 02:02:54;;;;;;;14.53;5.80;;;6.20;99.90;;;;;;5003709;28;20214;-76
2022/01/14 02:05:20;;;;;;;19.83;5.50;;;6.20;99.90;;;;;;4998580;28;20186;-76
2022/01/14 02:07:46;;;;;;;13.13;5.20;;;6.20;99.90;;;;;;5000058;28;20181;-76
2022/01/14 02:10:12;;;;;;;13.87;5.00;;;6.20;99.90;;;;;;5004554;28;20270;-76
2022/01/14 02:12:47;;;;;;;14.10;5.00;;;6.20;99.90;;;;;;4979014;28;20614;-77
2022/01/14 02:15:28;;;;;;;14.00;4.43;;;6.30;99.90;;;;;;5001127;28;20197;-76
2022/01/14 02:18:28;;;;;;;21.00;5.13;;;6.30;99.90;;;;;;5004311;28;20174;-76
2022/01/14 02:23:50;;;;;;;9.73;4.27;;;6.30;99.90;;;;;;4998194;28;20502;-77
2022/01/14 02:26:18;;;;;;;17.43;3.90;;;6.30;99.90;;;;;;4991164;28;20266;-76
2022/01/14 02:28:47;;;;;;;16.60;4.30;;;6.40;99.90;;;;;;5007427;28;20188;-77
2022/01/14 02:31:14;;;;;;;15.53;4.70;;;6.40;99.90;;;;;;5007259;28;20177;-77
2022/01/14 02:33:39;;;;;;;15.73;5.20;;;6.30;99.90;;;;;;4980851;28;20192;-77
2022/01/14 02:36:09;;;;;;;15.83;4.60;;;6.30;99.90;;;;;;4977833;28;20270;-77
2022/01/14 02:38:36;;;;;;;15.77;4.97;;;6.40;99.90;;;;;;5003051;28;20206;-77
2022/01/14 02:41:28;;;;;;;11.23;3.83;;;6.40;99.90;;;;;;4998315;28;20253;-77
2022/01/14 02:44:03;;;;;;;13.47;3.80;;;6.40;99.90;;;;;;4987777;28;20284;-77
2022/01/14 02:46:42;;;;;;;11.90;4.40;;;6.40;99.90;;;;;;5001675;28;20175;-77
2022/01/14 02:49:36;;;;;;;13.10;4.30;;;6.40;99.90;;;;;;4978488;28;20730;-77
2022/01/14 02:52:08;;;;;;;11.40;4.33;;;6.30;99.90;;;;;;4995095;28;20212;-77
2022/01/14 02:55:18;;;;;;;13.40;4.13;;;6.30;99.90;;;;;;5000550;28;20192;-77
2022/01/14 02:58:02;;;;;;;13.20;4.37;;;6.40;99.90;;;;;;5014472;28;20262;-77
2022/01/14 03:00:30;;;;;;;13.87;4.80;;;6.40;99.90;;;;;;5011303;28;20189;-77
2022/01/14 03:03:02;;;;;;;21.63;5.67;;;6.30;99.90;;;;;;5013174;28;20196;-76
2022/01/14 03:05:30;;;;;;;14.63;5.37;;;6.30;99.90;;;;;;5012770;28;20178;-76
2022/01/14 03:07:55;;;;;;;14.20;4.97;;;6.30;99.90;;;;;;5009376;28;20208;-76
2022/01/14 03:10:21;;;;;;;18.50;5.47;;;6.30;99.90;;;;;;5013867;28;20222;-76
2022/01/14 03:12:48;;;;;;;16.53;5.60;;;6.20;99.90;;;;;;4969666;28;20247;-76
2022/01/14 03:15:15;;;;;;;12.43;5.00;;;6.20;99.90;;;;;;4983304;28;20185;-77
2022/01/14 03:17:42;;;;;;;16.70;5.57;;;6.30;99.90;;;;;;4994449;28;20615;-76
2022/01/14 03:20:11;;;;;;;14.20;5.33;;;6.20;99.90;;;;;;5011162;28;20520;-76
2022/01/14 03:22:37;;;;;;;15.63;4.93;;;6.30;99.90;;;;;;5008056;28;20203;-77
2022/01/14 03:27:53;;;;;;;12.20;4.83;;;6.30;99.90;;;;;;5009117;28;20181;-76
2022/01/14 03:30:27;;;;;;;16.70;4.80;;;6.40;99.90;;;;;;4998448;28;20192;-77
2022/01/14 03:32:53;;;;;;;14.97;4.73;;;6.40;99.90;;;;;;4994454;28;20300;-76
2022/01/14 03:35:19;;;;;;;16.93;4.73;;;6.40;99.90;;;;;;5013840;28;20209;-76
2022/01/14 03:37:44;;;;;;;18.00;5.10;;;6.40;99.90;;;;;;4994521;28;20205;-76
2022/01/14 03:40:10;;;;;;;12.80;4.77;;;6.40;99.90;;;;;;5012652;28;20238;-77
2022/01/14 03:42:36;;;;;;;15.30;5.10;;;6.40;99.90;;;;;;5006756;28;20667;-77
2022/01/14 03:45:02;;;;;;;14.17;4.97;;;6.40;99.90;;;;;;4993115;28;20208;-76
2022/01/14 03:47:28;;;;;;;15.07;4.83;;;6.40;99.90;;;;;;5010948;28;20640;-76
2022/01/14 03:49:54;;;;;;;16.30;4.90;;;6.40;99.90;;;;;;4993576;28;20185;-77
2022/01/14 03:52:19;;;;;;;11.47;4.23;;;6.40;99.90;;;;;;4985748;28;20501;-75
2022/01/14 03:54:45;;;;;;;15.43;4.80;;;6.40;99.90;;;;;;4990184;28;20740;-76
2022/01/14 03:57:11;;;;;;;13.10;4.80;;;6.40;99.90;;;;;;5011017;28;20182;-76
2022/01/14 03:59:38;;;;;;;15.43;5.70;;;6.40;99.90;;;;;;4996784;28;20215;-76
2022/01/14 04:02:14;;;;;;;17.30;5.13;;;6.40;99.90;;;;;;5007704;28;20204;-77
2022/01/14 04:04:51;;;;;;;17.73;5.23;;;6.40;99.90;;;;;;5005282;28;20174;-77
2022/01/14 04:07:20;;;;;;;12.93;5.23;;;6.40;99.90;;;;;;4979494;28;20224;-76
2022/01/14 04:09:48;;;;;;;18.60;6.00;;;6.40;99.90;;;;;;5013106;28;20329;-77
2022/01/14 04:12:19;;;;;;;17.57;5.83;;;6.40;99.90;;;;;;4979661;28;20310;-77
2022/01/14 04:17:36;;;;;;;13.97;4.83;;;6.50;99.90;;;;;;5007116;28;20181;-77
2022/01/14 04:20:02;;;;;;;16.60;5.53;;;6.40;99.90;;;;;;4989087;28;20290;-76
2022/01/14 04:22:28;;;;;;;16.90;5.27;;;6.40;99.90;;;;;;4987381;28;20248;-76
2022/01/14 04:25:11;;;;;;;15.97;5.77;;;6.50;99.90;;;;;;5012394;28;20177;-77
2022/01/14 04:27:37;;;;;;;17.87;5.43;;;6.50;99.90;;;;;;5009027;28;20701;-76
2022/01/14 04:30:03;;;;;;;14.57;5.67;;;6.50;99.90;;;;;;5015012;28;20361;-77
2022/01/14 04:32:28;;;;;;;12.57;5.60;;;6.40;99.90;;;;;;4991644;28;20204;-77
2022/01/14 04:34:54;;;;;;;16.77;5.40;;;6.40;99.90;;;;;;5003486;28;20676;-77
2022/01/14 04:37:26;;;;;;;12.27;4.90;;;6.40;99.90;;;;;;4985760;28;20246;-77
2022/01/14 04:40:05;;;;;;;14.90;5.50;;;6.40;99.90;;;;;;4999170;28;20226;-76
2022/01/14 04:42:32;;;;;;;18.27;6.67;;;6.40;99.90;;;;;;4991819;28;20256;-76
2022/01/14 04:44:58;;;;;;;18.63;5.77;;;6.40;99.90;;;;;;5006817;28;20176;-77
2022/01/14 04:47:34;;;;;;;14.50;5.13;;;6.40;99.90;;;;;;4997639;28;20187;-77
2022/01/14 04:50:26;;;;;;;15.37;5.73;;;6.40;99.90;;;;;;5000914;28;20263;-77
2022/01/14 04:52:52;;;;;;;14.00;5.47;;;6.40;99.90;;;;;;5009313;28;20682;-76
2022/01/14 04:55:27;;;;;;;17.67;5.67;;;6.50;99.90;;;;;;5009616;28;20230;-78
2022/01/14 04:57:54;;;;;;;18.80;5.60;;;6.40;99.90;;;;;;4979358;28;20182;-78
2022/01/14 05:00:22;;;;;;;15.87;5.33;;;6.40;99.90;;;;;;5002694;28;20262;-77
2022/01/14 05:02:51;;;;;;;14.87;5.40;;;6.40;99.90;;;;;;5008856;28;20672;-77
2022/01/14 05:05:19;;;;;;;17.27;5.73;;;6.40;99.90;;;;;;5016749;28;20177;-77
2022/01/14 05:07:46;;;;;;;16.00;5.83;;;6.30;99.90;;;;;;4996271;28;20203;-77
2022/01/14 05:12:53;;;;;;;15.40;5.57;;;6.40;99.90;;;;;;5013146;28;20211;-77
2022/01/14 05:15:20;;;;;;;17.80;5.33;;;6.40;99.90;;;;;;4990157;28;20179;-77
2022/01/14 05:17:47;;;;;;;16.33;5.33;;;6.40;99.90;;;;;;5016500;28;20178;-77
2022/01/14 05:20:19;;;;;;;17.77;5.33;;;6.40;99.90;;;;;;5007686;28;20221;-77
2022/01/14 05:22:51;;;;;;;18.70;5.47;;;6.40;99.90;;;;;;4993560;28;20200;-77
2022/01/14 05:25:23;;;;;;;25.80;5.67;;;6.40;99.90;;;;;;5000087;28;20211;-77
2022/01/14 05:27:58;;;;;;;16.90;5.13;;;6.40;99.90;;;;;;4985764;28;20171;-77
2022/01/14 05:30:26;;;;;;;19.60;5.13;;;6.40;99.90;;;;;;4988148;28;20192;-77
2022/01/14 05:32:53;;;;;;;14.03;4.47;;;6.40;99.90;;;;;;5003496;28;20222;-77
2022/01/14 05:35:24;;;;;;;20.47;4.90;;;6.40;99.90;;;;;;4989335;28;20207;-77
2022/01/14 05:37:51;;;;;;;20.53;5.67;;;6.40;99.90;;;;;;4995982;28;20193;-77
2022/01/14 05:40:19;;;;;;;18.03;5.60;;;6.40;99.90;;;;;;4996764;28;20203;-76
2022/01/14 05:42:44;;;;;;;17.47;4.83;;;6.50;99.90;;;;;;5003935;28;20201;-76
2022/01/14 05:45:12;;;;;;;24.00;4.93;;;6.40;99.90;;;;;;4984867;28;20207;-76
2022/01/14 05:47:39;;;;;;;14.53;4.17;;;6.40;99.90;;;;;;4988346;28;20174;-77
2022/01/14 05:50:11;;;;;;;15.60;4.97;;;6.40;99.90;;;;;;5007414;28;20176;-76
2022/01/14 05:52:39;;;;;;;14.73;4.70;;;6.30;99.90;;;;;;4996135;28;20323;-76
2022/01/14 05:55:10;;;;;;;14.20;4.10;;;6.30;99.90;;;;;;4983410;28;20251;-76
2022/01/14 05:58:06;;;;;;;13.47;4.80;;;6.30;99.90;;;;;;5004444;28;20803;-77
2022/01/14 06:00:32;;;;;;;17.20;4.60;;;6.30;99.90;;;;;;5013564;28;20211;-77
2022/01/14 06:02:58;;;;;;;20.87;4.63;;;6.30;99.90;;;;;;5014750;28;20200;-77
2022/01/14 06:05:24;;;;;;;14.70;3.67;;;6.20;99.90;;;;;;5011384;28;20257;-77
2022/01/14 06:07:51;;;;;;;13.83;4.30;;;6.20;99.90;;;;;;4981348;28;20211;-77
2022/01/14 06:10:24;;;;;;;9.00;4.07;;;6.30;99.90;;;;;;4979295;28;20187;-76
2022/01/14 06:12:50;;;;;;;18.00;4.33;;;6.30;99.90;;;;;;4979202;28;20212;-76
2022/01/14 06:15:16;;;;;;;18.83;4.23;;;6.30;99.90;;;;;;5008474;28;20186;-76
2022/01/14 06:17:45;;;;;;;14.00;3.73;;;6.20;99.90;;;;;;4990371;28;20283;-76
2022/01/14 06:20:25;;;;;;;13.87;3.70;;;6.20;99.90;;;;;;4984266;28;20207;-77
2022/01/14 06:22:51;;;;;;;23.47;4.13;;;6.20;99.90;;;;;;5028218;28;20195;-77
2022/01/14 06:25:26;;;;;;;20.73;3.93;;;6.10;99.90;;;;;;4995016;28;20176;-77
2022/01/14 06:28:15;;;;;;;15.60;3.60;;;6.10;99.90;;;;;;4997486;28;20213;-77
2022/01/14 06:30:41;;;;;;;21.17;3.53;;;6.10;99.90;;;;;;5020946;28;20181;-77
2022/01/14 06:33:07;;;;;;;18.77;3.77;;;6.10;99.90;;;;;;4988789;28;20201;-77
2022/01/14 06:35:34;;;;;;;15.57;3.97;;;6.10;99.90;;;;;;4985273;28;20177;-77
2022/01/14 06:38:11;;;;;;;16.07;3.80;;;6.10;99.90;;;;;;5017023;28;20226;-76
2022/01/14 06:40:37;;;;;;;17.73;4.37;;;6.00;99.90;;;;;;5016650;28;20184;-76
2022/01/14 06:43:04;;;;;;;14.93;3.27;;;6.10;99.90;;;;;;4986750;28;20583;-77
2022/01/14 06:45:31;;;;;;;19.97;4.17;;;6.20;99.90;;;;;;5004329;28;20199;-77
2022/01/14 06:47:58;;;;;;;16.80;4.00;;;6.20;99.90;;;;;;4992633;28;20212;-77
2022/01/14 06:50:25;;;;;;;19.33;4.33;;;6.20;99.90;;;;;;4983367;28;20184;-77
2022/01/14 06:52:51;;;;;;;19.27;3.93;;;6.20;99.90;;;;;;5023712;28;20736;-77
2022/01/14 06:55:17;;;;;;;24.73;4.30;;;6.20;99.90;;;;;;5015160;28;20185;-76
2022/01/14 06:57:48;;;;;;;22.40;4.23;;;6.20;99.90;;;;;;5012973;28;20538;-77
2022/01/14 07:00:16;;;;;;;19.03;4.70;;;6.20;99.90;;;;;;4988490;28;20257;-76
2022/01/14 07:02:41;;;;;;;15.17;4.00;;;6.20;99.90;;;;;;5017135;28;20544;-76
2022/01/14 07:05:16;;;;;;;20.53;4.13;;;6.10;99.90;;;;;;4987105;28;20184;-77
2022/01/14 07:07:42;;;;;;;10.17;3.60;;;6.20;99.90;;;;;;4977755;28;20175;-77
2022/01/14 07:10:09;;;;;;;21.60;4.87;;;6.20;99.90;;;;;;4986101;28;20613;-78
2022/01/14 07:12:37;;;;;;;21.90;4.47;;;6.20;99.90;;;;;;4991571;28;20218;-77
2022/01/14 07:15:08;;;;;;;22.53;5.10;;;6.20;99.90;;;;;;5012811;28;20176;-77
2022/01/14 07:17:34;;;;;;;20.80;4.70;;;6.10;99.90;;;;;;5017034;28;20182;-77
2022/01/14 07:20:35;;;;;;;20.60;5.17;;;6.10;99.90;;;;;;5008268;28;20185;-77
2022/01/14 07:23:08;;;;;;;22.43;4.40;;;6.20;99.90;;;;;;5017071;28;20202;-77
2022/01/14 07:25:34;;;;;;;30.37;5.37;;;6.20;99.90;;;;;;5016266;28;20180;-77
2022/01/14 07:28:00;;;;;;;21.40;4.33;;;6.20;99.90;;;;;;5003858;28;20230;-77
2022/01/14 07:30:25;;;;;;;15.53;4.53;;;6.20;99.90;;;;;;4999414;28;20562;-77
2022/01/14 07:32:52;;;;;;;18.90;4.50;;;6.20;99.90;;;;;;4986501;28;20543;-76
2022/01/14 07:35:18;;;;;;;22.43;4.90;;;6.20;99.90;;;;;;5009087;28;20275;-78
2022/01/14 07:37:43;;;;;;;26.30;5.47;;;6.20;99.90;;;;;;5009869;28;20642;-76
2022/01/14 07:40:10;;;;;;;18.87;4.93;;;6.30;99.90;;;;;;5006929;28;20232;-76
2022/01/14 07:42:36;;;;;;;18.27;4.47;;;6.30;99.90;;;;;;5004974;28;20192;-77
2022/01/14 07:45:10;;;;;;;19.43;4.77;;;6.20;99.90;;;;;;4981423;28;20308;-78
2022/01/14 07:47:35;;;;;;;24.80;4.63;;;6.20;99.90;;;;;;5000756;28;20168;-77
2022/01/14 07:50:01;;;;;;;16.17;4.47;;;6.30;99.90;;;;;;5005414;28;20194;-77
2022/01/14 07:52:27;;;;;;;17.37;4.23;;;6.30;99.90;;;;;;5020490;28;20211;-77
2022/01/14 07:54:53;;;;;;;19.37;4.97;;;6.30;99.90;;;;;;5010981;28;20185;-77
2022/01/14 07:57:19;;;;;;;19.00;4.80;;;6.30;99.90;;;;;;4983803;28;20191;-76
2022/01/14 07:59:44;;;;;;;20.40;4.63;;;6.30;99.90;;;;;;4996800;28;20290;-77
2022/01/14 08:02:14;;;;;;;18.27;4.70;;;6.30;99.90;;;;;;4984504;28;20223;-76
2022/01/14 08:04:41;;;;;;;14.27;4.63;;;6.30;99.90;;;;;;5014927;28;20239;-77
2022/01/14 08:07:10;;;;;;;23.90;4.87;;;6.20;99.90;;;;;;5007681;28;20570;-77
2022/01/14 08:09:41;;;;;;;20.40;4.60;;;6.20;99.90;;;;;;5015692;28;20316;-76
2022/01/14 08:12:08;;;;;;;16.60;4.87;;;6.20;99.90;;;;;;5011948;28;20674;-77
2022/01/14 08:14:34;;;;;;;15.17;4.47;;;6.30;99.90;;;;;;5006582;28;20192;-77
2022/01/14 08:16:59;;;;;;;22.70;4.80;;;6.30;99.90;;;;;;4985963;28;20182;-77
2022/01/14 08:19:25;;;;;;;23.60;4.80;;;6.40;99.90;;;;;;5003035;28;20258;-78
2022/01/14 08:21:51;;;;;;;21.90;5.17;;;6.30;99.90;;;;;;4991076;28;20577;-77
2022/01/14 08:24:17;;;;;;;20.63;4.67;;;6.40;99.90;;;;;;4983697;28;20553;-77
2022/01/14 08:26:42;;;;;;;22.97;4.73;;;6.40;99.90;;;;;;5009465;28;20195;-77
2022/01/14 08:29:08;;;;;;;22.60;4.70;;;6.40;99.90;;;;;;4984078;28;20238;-77
2022/01/14 08:31:34;;;;;;;18.07;4.23;;;6.40;99.90;;;;;;5008519;28;20184;-77
2022/01/14 08:34:00;;;;;;;15.27;4.30;;;6.30;99.90;;;;;;4991002;28;20200;-76
2022/01/14 08:36:28;;;;;;;16.23;4.60;;;6.30;99.90;;;;;;4986450;28;20241;-76
2022/01/14 08:38:54;;;;;;;19.57;4.27;;;6.30;99.90;;;;;;5007803;28;20208;-77
2022/01/14 08:41:20;;;;;;;15.83;4.00;;;6.30;99.90;;;;;;4984581;28;20185;-77
2022/01/14 08:43:47;;;;;;;21.00;5.00;;;6.40;99.90;;;;;;5017592;28;20577;-77
2022/01/14 08:46:14;;;;;;;25.17;4.87;;;6.30;99.90;;;;;;5009775;28;20688;-77
2022/01/14 08:48:42;;;;;;;21.10;4.30;;;6.40;99.90;;;;;;5004784;28;20250;-76
2022/01/14 08:51:08;;;;;;;21.30;4.80;;;6.40;99.90;;;;;;5009377;28;20184;-77
2022/01/14 08:53:33;;;;;;;21.20;5.23;;;6.20;99.90;;;;;;4995444;28;20204;-75
2022/01/14 08:55:59;;;;;;;18.80;4.33;;;6.20;99.90;;;;;;4983380;28;20189;-76
2022/01/14 08:58:25;;;;;;;20.53;4.90;;;6.20;99.90;;;;;;5012314;28;20559;-77
2022/01/14 09:00:52;;;;;;;22.13;5.20;;;6.10;99.90;;;;;;4990028;28;20242;-76
2022/01/14 09:03:18;;;;;;;22.07;5.60;;;6.10;99.90;;;;;;5014318;28;20681;-77
2022/01/14 09:05:44;;;;;;;21.53;5.67;;;6.00;99.90;;;;;;4999142;28;20691;-77
2022/01/14 09:08:17;;;;;;;20.27;5.47;;;6.00;99.90;;;;;;4985095;28;20175;-77
2022/01/14 09:10:43;;;;;;;24.27;5.50;;;6.00;99.90;;;;;;4983763;28;20177;-77
2022/01/14 09:13:09;;;;;;;19.73;5.87;;;6.00;99.90;;;;;;4982174;28;20216;-76
2022/01/14 09:15:36;;;;;;;23.20;6.40;;;6.00;99.90;;;;;;5000371;28;20171;-76
2022/01/14 09:18:02;;;;;;;19.83;5.53;;;5.90;99.90;;;;;;5001625;28;20184;-77
2022/01/14 09:20:28;;;;;;;26.43;6.57;;;6.00;99.90;;;;;;5004317;28;20210;-76
2022/01/14 09:22:57;;;;;;;22.50;5.97;;;6.00;99.90;;;;;;5009595;28;20201;-76
2022/01/14 09:25:24;;;;;;;21.37;6.13;;;5.90;99.90;;;;;;4988019;28;20177;-77
2022/01/14 09:27:52;;;;;;;26.87;6.70;;;6.00;99.90;;;;;;5010780;28;20171;-77
2022/01/14 09:30:22;;;;;;;25.43;6.07;;;6.00;99.90;;;;;;5008114;28;20662;-76
2022/01/14 09:32:47;;;;;;;21.83;4.93;;;5.90;99.90;;;;;;5008221;28;20198;-77
2022/01/14 09:35:13;;;;;;;27.63;5.90;;;6.00;99.90;;;;;;5009020;28;20183;-77
2022/01/14 09:37:45;;;;;;;16.90;5.33;;;5.90;99.90;;;;;;4990963;28;20179;-76
2022/01/14 09:40:14;;;;;;;20.53;5.77;;;6.00;99.90;;;;;;4986549;28;20212;-77
2022/01/14 09:42:40;;;;;;;18.90;5.97;;;6.00;99.90;;;;;;4980002;28;20571;-77
2022/01/14 09:45:06;;;;;;;22.37;5.33;;;6.00;99.90;;;;;;5007937;28;20193;-77
2022/01/14 09:47:32;;;;;;;21.47;5.33;;;5.90;99.90;;;;;;4988645;28;20174;-76
2022/01/14 09:49:57;;;;;;;24.43;5.60;;;6.00;99.90;;;;;;5009894;28;20265;-76
2022/01/14 09:52:23;;;;;;;26.67;6.33;;;6.00;99.90;;;;;;5009153;28;20724;-77
2022/01/14 09:54:51;;;;;;;24.33;5.50;;;6.00;99.90;;;;;;5005945;28;20590;-76
2022/01/14 09:57:19;;;;;;;19.07;5.27;;;6.00;99.90;;;;;;4976935;28;20599;-77
2022/01/14 09:59:45;;;;;;;15.80;5.20;;;6.00;99.90;;;;;;4981871;28;20203;-77
2022/01/14 10:02:28;;;;;;;21.37;5.17;;;6.00;99.90;;;;;;5009933;28;20194;-77
2022/01/14 10:04:54;;;;;;;21.23;5.90;;;6.00;99.90;;;;;;5019762;28;20186;-77
2022/01/14 10:07:19;;;;;;;23.60;5.80;;;6.00;99.90;;;;;;5009119;28;20185;-77
2022/01/14 10:09:53;;;;;;;28.63;5.90;;;6.00;99.90;;;;;;5008630;28;20220;-77
2022/01/14 10:12:20;;;;;;;17.77;5.27;;;6.00;99.90;;;;;;5009348;28;20211;-77
2022/01/14 10:14:58;;;;;;;22.97;5.47;;;6.00;99.90;;;;;;5007214;28;20198;-76
2022/01/14 10:17:25;;;;;;;24.00;6.17;;;6.00;99.90;;;;;;5007051;28;20179;-76
2022/01/14 10:19:51;;;;;;;21.37;5.70;;;6.00;99.90;;;;;;4985490;28;20195;-76
2022/01/14 10:22:23;;;;;;;18.07;5.53;;;6.00;99.90;;;;;;4993884;28;20685;-77
2022/01/14 10:25:01;;;;;;;17.00;5.80;;;5.90;99.90;;;;;;4992498;28;20173;-77
2022/01/14 10:27:41;;;;;;;21.20;5.53;;;6.00;99.90;;;;;;5002745;28;20185;-77
2022/01/14 10:30:12;;;;;;;21.17;6.07;;;6.00;99.90;;;;;;5003285;28;20180;-77
2022/01/14 10:32:40;;;;;;;24.10;6.27;;;6.00;99.90;;;;;;5005865;28;20213;-77
2022/01/14 10:35:08;;;;;;;20.20;6.23;;;6.00;99.90;;;;;;4980553;28;20232;-78
2022/01/14 10:37:35;;;;;;;21.83;6.30;;;6.00;99.90;;;;;;5009078;28;20588;-77
2022/01/14 10:40:11;;;;;;;27.23;6.93;;;6.10;99.90;;;;;;4990633;28;20199;-77
2022/01/14 10:42:37;;;;;;;19.50;6.57;;;6.00;99.90;;;;;;5010807;28;20686;-76
2022/01/14 10:45:24;;;;;;;20.23;7.07;;;6.00;99.90;;;;;;4985781;28;20732;-77
2022/01/14 10:48:04;;;;;;;23.30;7.83;;;6.00;99.90;;;;;;4989705;28;20249;-78
2022/01/14 10:50:42;;;;;;;25.17;7.53;;;6.00;99.90;;;;;;4981761;28;20664;-77
2022/01/14 10:53:21;;;;;;;21.80;7.63;;;6.00;99.90;;;;;;4987922;28;20232;-78
2022/01/14 10:56:17;;;;;;;24.83;8.03;;;6.10;99.90;;;;;;4993709;28;20189;-77
2022/01/14 10:58:48;;;;;;;23.20;7.37;;;6.10;99.90;;;;;;5020629;28;20216;-77
2022/01/14 11:01:26;;;;;;;25.37;8.30;;;6.10;99.90;;;;;;5011319;28;20180;-78
2022/01/14 11:04:03;;;;;;;19.80;7.33;;;6.00;99.90;;;;;;5007328;28;20200;-77
2022/01/14 11:06:40;;;;;;;25.90;7.90;;;6.00;99.90;;;;;;4984360;28;20202;-77
2022/01/14 11:09:14;;;;;;;17.70;7.17;;;6.00;99.90;;;;;;4986159;28;20184;-76
2022/01/14 11:11:46;;;;;;;23.40;7.60;;;6.00;99.90;;;;;;4995239;28;20182;-78
2022/01/14 11:14:17;;;;;;;20.50;8.73;;;6.00;99.90;;;;;;5008626;28;20200;-76
2022/01/14 11:16:43;;;;;;;22.00;8.27;;;6.00;99.90;;;;;;5022103;28;20169;-78
2022/01/14 11:19:24;;;;;;;21.00;8.67;;;6.10;99.90;;;;;;4980011;28;20260;-78
2022/01/14 11:24:39;;;;;;;17.73;7.87;;;6.10;99.90;;;;;;5026510;28;20305;-77
2022/01/14 11:27:12;;;;;;;16.63;8.63;;;6.10;99.90;;;;;;5001447;28;20184;-76
2022/01/14 11:29:43;;;;;;;18.03;7.83;;;6.10;99.90;;;;;;5017281;28;20194;-78
2022/01/14 11:32:10;;;;;;;19.67;8.50;;;6.10;99.90;;;;;;5000604;28;20209;-78
2022/01/14 11:34:45;;;;;;;17.03;8.30;;;6.10;99.90;;;;;;5015238;28;20216;-78
2022/01/14 11:37:29;;;;;;;14.53;7.60;;;6.10;99.90;;;;;;5006896;28;20214;-77
2022/01/14 11:39:57;;;;;;;17.20;7.73;;;6.20;99.90;;;;;;4989720;28;20205;-78
2022/01/14 11:42:42;;;;;;;19.40;7.93;;;6.20;99.90;;;;;;5020058;28;20202;-78
2022/01/14 11:45:38;;;;;;;17.07;7.83;;;6.10;99.90;;;;;;5001708;28;20577;-78
2022/01/14 11:48:06;;;;;;;17.03;7.77;;;6.10;99.90;;;;;;4985237;28;20191;-76
2022/01/14 11:50:37;;;;;;;13.50;8.17;;;6.20;99.90;;;;;;4986894;28;20654;-77
2022/01/14 11:53:04;;;;;;;12.47;7.30;;;6.30;99.90;;;;;;5011068;28;20207;-78
2022/01/14 11:55:41;;;;;;;20.80;8.50;;;6.40;99.90;;;;;;4990005;28;20171;-77
2022/01/14 11:58:09;;;;;;;17.30;7.97;;;6.30;99.90;;;;;;4987448;28;20177;-77
2022/01/14 12:00:39;;;;;;;12.73;7.73;;;6.30;99.90;;;;;;4997146;28;20229;-78
2022/01/14 12:03:13;;;;;;;11.40;6.93;;;6.30;99.90;;;;;;5010799;28;20200;-78
2022/01/14 12:05:54;;;;;;;14.73;7.73;;;6.40;99.90;;;;;;4980470;28;20178;-78
2022/01/14 12:08:33;;;;;;;10.93;7.13;;;6.40;99.90;;;;;;4992761;28;20210;-78
2022/01/14 12:11:16;;;;;;;13.90;6.93;;;6.40;99.90;;;;;;5017226;28;20181;-79
2022/01/14 12:13:58;;;;;;;12.83;7.00;;;6.30;99.90;;;;;;5011756;28;20216;-77
2022/01/14 12:18:58;;;;;;;11.13;7.10;;;6.30;99.90;;;;;;5001298;28;20213;-77
2022/01/14 12:21:43;;;;;;;10.13;7.30;;;6.30;99.90;;;;;;4980706;28;20173;-77
2022/01/14 12:24:21;;;;;;;12.33;7.00;;;6.40;99.90;;;;;;4998140;28;20196;-78
2022/01/14 12:27:00;;;;;;;11.67;7.77;;;6.30;99.90;;;;;;4990525;28;20203;-77
2022/01/14 12:29:39;;;;;;;14.27;7.37;;;6.40;99.90;;;;;;4997915;28;20181;-77
2022/01/14 12:32:07;;;;;;;11.30;7.20;;;6.40;99.90;;;;;;4999475;28;20185;-77
2022/01/14 12:34:36;;;;;;;9.70;6.73;;;6.40;99.90;;;;;;4984675;28;20185;-78
2022/01/14 12:37:02;;;;;;;12.00;7.47;;;6.40;99.90;;;;;;5017636;28;20516;-77
2022/01/14 12:39:28;;;;;;;12.73;7.00;;;6.40;99.90;;;;;;5011518;28;20204;-78
2022/01/14 12:41:57;;;;;;;8.73;6.60;;;6.50;99.90;;;;;;5009476;28;20195;-78
2022/01/14 12:44:24;;;;;;;11.20;7.27;;;6.60;99.90;;;;;;4983496;28;20265;-76
2022/01/14 12:47:06;;;;;;;12.43;7.63;;;6.60;99.90;;;;;;5009778;28;20170;-77
2022/01/14 12:49:40;;;;;;;9.80;6.97;;;6.60;99.90;;;;;;4992548;28;20186;-78
2022/01/14 12:52:16;;;;;;;11.90;7.33;;;6.70;99.90;;;;;;4986976;28;20287;-78
2022/01/14 12:54:44;;;;;;;10.10;7.13;;;6.70;99.90;;;;;;5004372;28;20236;-78
2022/01/14 12:57:17;;;;;;;10.13;6.73;;;6.70;99.90;;;;;;4987968;28;20193;-77
2022/01/14 12:59:46;;;;;;;10.53;6.67;;;6.70;99.90;;;;;;4984672;28;20211;-77
2022/01/14 13:02:24;;;;;;;9.13;6.80;;;6.70;99.90;;;;;;4984164;28;20202;-77
2022/01/14 13:05:03;;;;;;;9.30;6.53;;;6.80;99.90;;;;;;5013522;28;20179;-78
2022/01/14 13:07:30;;;;;;;10.57;6.53;;;6.90;99.90;;;;;;4993019;28;20265;-77
2022/01/14 13:09:56;;;;;;;10.17;6.67;;;6.90;99.90;;;;;;5010332;28;20182;-77
2022/01/14 13:12:26;;;;;;;9.40;5.93;;;6.80;99.90;;;;;;4991255;28;20583;-77
2022/01/14 13:14:56;;;;;;;10.00;5.60;;;6.80;99.90;;;;;;4981241;28;20220;-77
2022/01/14 13:17:27;;;;;;;9.40;5.40;;;6.90;99.90;;;;;;4989173;28;20215;-77
2022/01/14 13:19:58;;;;;;;6.87;4.83;;;7.00;99.90;;;;;;5007986;28;20201;-77
2022/01/14 13:22:25;;;;;;;7.40;4.50;;;7.00;99.90;;;;;;4984423;28;20257;-77
2022/01/14 13:24:54;;;;;;;6.07;4.77;;;7.00;99.90;;;;;;5002171;28;20272;-77
2022/01/14 13:27:22;;;;;;;8.40;4.73;;;7.00;99.90;;;;;;5003044;28;20173;-77
2022/01/14 13:29:54;;;;;;;8.40;4.77;;;7.10;99.90;;;;;;5008133;28;20266;-77
2022/01/14 13:32:22;;;;;;;8.10;4.90;;;7.00;99.90;;;;;;5015194;28;20294;-77
2022/01/14 13:34:52;;;;;;;6.53;4.80;;;7.00;99.90;;;;;;5002474;28;20254;-77